createdAt,value
2018-03-24T00:01:12.540Z,54.20
2018-03-24T00:03:45.706Z,56.33
2018-03-24T00:06:19.214Z,56.00
2018-03-24T00:08:51.722Z,50.93
2018-03-24T00:11:24.125Z,54.60
2018-03-24T00:13:56.734Z,63.37
2018-03-24T00:16:29.969Z,60.63
2018-03-24T00:19:02.381Z,53.83
2018-03-24T00:21:34.990Z,55.53
2018-03-24T00:24:08.795Z,58.67
2018-03-24T00:26:41.256Z,53.07
2018-03-24T00:29:13.798Z,58.93
2018-03-24T00:31:46.458Z,53.37
2018-03-24T00:34:18.875Z,50.10
2018-03-24T00:36:51.412Z,53.63
2018-03-24T00:39:23.990Z,56.57
2018-03-24T00:41:57.232Z,51.47
2018-03-24T00:44:29.663Z,56.77
2018-03-24T00:47:02.672Z,51.03
2018-03-24T00:49:35.353Z,55.87
2018-03-24T00:52:07.874Z,50.67
2018-03-24T00:54:40.393Z,48.30
2018-03-24T00:57:13.105Z,57.60
2018-03-24T00:59:45.727Z,50.97
2018-03-24T01:02:18.120Z,59.17
2018-03-24T01:04:51.393Z,54.47
2018-03-24T01:07:24.807Z,53.03
2018-03-24T01:09:57.963Z,55.60
2018-03-24T01:12:30.388Z,54.73
2018-03-24T01:15:02.930Z,52.10
2018-03-24T01:17:35.530Z,54.10
2018-03-24T01:20:07.972Z,51.13
2018-03-24T01:22:40.540Z,54.00
2018-03-24T01:25:13.299Z,53.13
2018-03-24T01:27:45.820Z,46.73
2018-03-24T01:30:19.062Z,45.07
2018-03-24T01:32:52.088Z,49.67
2018-03-24T01:35:26.150Z,47.60
2018-03-24T01:37:58.572Z,55.50
2018-03-24T01:40:31.038Z,53.77
2018-03-24T01:43:03.509Z,51.13
2018-03-24T01:45:35.908Z,49.17
2018-03-24T01:48:08.368Z,49.00
2018-03-24T01:50:40.968Z,43.73
2018-03-24T01:53:13.453Z,42.80
2018-03-24T01:55:46.644Z,45.47
2018-03-24T01:58:19.129Z,45.97
2018-03-24T02:00:51.699Z,45.63
2018-03-24T02:03:24.281Z,42.73
2018-03-24T02:05:56.845Z,50.57
2018-03-24T02:08:29.238Z,40.50
2018-03-24T02:11:01.840Z,41.40
2018-03-24T02:13:34.364Z,44.20
2018-03-24T02:16:06.740Z,41.17
2018-03-24T02:18:39.259Z,43.43
2018-03-24T02:21:11.864Z,42.40
2018-03-24T02:23:44.563Z,42.10
2018-03-24T02:26:17.170Z,40.90
2018-03-24T02:28:49.603Z,37.60
2018-03-24T02:31:22.737Z,41.10
2018-03-24T02:33:55.229Z,38.37
2018-03-24T02:36:27.765Z,35.60
2018-03-24T02:39:00.390Z,36.93
2018-03-24T02:41:33.618Z,46.40
2018-03-24T02:44:06.126Z,39.90
2018-03-24T02:46:39.238Z,41.93
2018-03-24T02:49:12.468Z,39.50
2018-03-24T02:51:45.769Z,38.77
2018-03-24T02:54:18.389Z,36.47
2018-03-24T02:56:51.673Z,41.50
2018-03-24T02:59:24.197Z,42.40
2018-03-24T03:01:57.530Z,38.90
2018-03-24T03:04:30.536Z,41.43
2018-03-24T03:07:03.103Z,36.80
2018-03-24T03:09:35.837Z,38.00
2018-03-24T03:12:09.058Z,48.13
2018-03-24T03:14:42.974Z,42.90
2018-03-24T03:17:15.688Z,41.00
2018-03-24T03:19:49.237Z,40.20
2018-03-24T03:22:21.723Z,42.67
2018-03-24T03:24:54.117Z,48.70
2018-03-24T03:27:26.717Z,41.30
2018-03-24T03:29:59.986Z,38.57
2018-03-24T03:32:32.546Z,42.33
2018-03-24T03:35:05.638Z,41.97
2018-03-24T03:37:38.223Z,44.97
2018-03-24T03:40:10.700Z,41.40
2018-03-24T03:42:43.105Z,41.23
2018-03-24T03:45:15.924Z,46.37
2018-03-24T03:47:49.045Z,55.23
2018-03-24T03:50:21.466Z,46.27
2018-03-24T03:52:54.204Z,51.17
2018-03-24T03:55:26.979Z,51.87
2018-03-24T03:57:59.585Z,44.70
2018-03-24T04:00:31.994Z,48.00
2018-03-24T04:03:05.187Z,44.83
2018-03-24T04:05:37.803Z,47.20
2018-03-24T04:08:10.979Z,46.00
2018-03-24T04:10:44.177Z,45.97
2018-03-24T04:13:16.758Z,47.07
2018-03-24T04:15:50.107Z,50.60
2018-03-24T04:18:22.713Z,51.40
2018-03-24T04:20:55.153Z,48.37
2018-03-24T04:23:27.680Z,45.53
2018-03-24T04:26:00.264Z,50.97
2018-03-24T04:28:32.869Z,55.93
2018-03-24T04:31:05.526Z,45.17
2018-03-24T04:33:38.264Z,49.93
2018-03-24T04:36:10.798Z,49.73
2018-03-24T04:38:43.923Z,44.70
2018-03-24T04:41:16.495Z,50.73
2018-03-24T04:43:49.119Z,43.70
2018-03-24T04:46:21.763Z,46.20
2018-03-24T04:48:55.149Z,44.97
2018-03-24T04:51:27.833Z,48.03
2018-03-24T04:54:01.085Z,44.17
2018-03-24T04:56:33.694Z,46.20
2018-03-24T04:59:06.007Z,50.23
2018-03-24T05:01:38.584Z,47.37
2018-03-24T05:04:11.089Z,48.57
2018-03-24T05:06:46.065Z,44.77
2018-03-24T05:09:18.526Z,53.27
2018-03-24T05:11:51.063Z,45.83
2018-03-24T05:14:23.627Z,61.07
2018-03-24T05:16:56.202Z,44.30
2018-03-24T05:19:28.876Z,57.20
2018-03-24T05:22:01.968Z,59.07
2018-03-24T05:24:34.390Z,51.43
2018-03-24T05:27:06.985Z,62.03
2018-03-24T05:29:39.590Z,54.27
2018-03-24T05:32:12.172Z,63.63
2018-03-24T05:34:44.733Z,65.70
2018-03-24T05:37:18.009Z,61.10
2018-03-24T05:39:50.670Z,54.80
2018-03-24T05:42:23.244Z,64.30
2018-03-24T05:44:55.747Z,64.13
2018-03-24T05:47:28.353Z,62.80
2018-03-24T05:50:00.719Z,65.80
2018-03-24T05:52:33.132Z,53.10
2018-03-24T05:55:05.658Z,63.57
2018-03-24T05:57:38.038Z,57.70
2018-03-24T06:00:10.612Z,48.77
2018-03-24T06:02:43.985Z,51.40
2018-03-24T06:05:17.974Z,51.43
2018-03-24T06:07:51.289Z,56.60
2018-03-24T06:10:26.119Z,44.03
2018-03-24T06:12:59.604Z,52.87
2018-03-24T06:15:32.019Z,49.17
2018-03-24T06:18:04.789Z,48.93
2018-03-24T06:20:37.273Z,43.93
2018-03-24T06:23:09.926Z,45.00
2018-03-24T06:25:42.447Z,52.77
2018-03-24T06:28:15.060Z,49.07
2018-03-24T06:31:03.271Z,45.10
2018-03-24T06:33:35.718Z,46.10
2018-03-24T06:36:09.114Z,54.07
2018-03-24T06:38:41.527Z,48.67
2018-03-24T06:41:13.930Z,48.70
2018-03-24T06:43:47.087Z,57.53
2018-03-24T06:46:19.717Z,48.43
2018-03-24T06:48:52.918Z,51.60
2018-03-24T06:51:25.370Z,50.97
2018-03-24T06:53:58.335Z,51.73
2018-03-24T06:56:31.485Z,48.40
2018-03-24T06:59:03.945Z,52.17
2018-03-24T07:01:37.067Z,51.57
2018-03-24T07:04:11.639Z,47.30
2018-03-24T07:06:44.031Z,46.93
2018-03-24T07:09:16.622Z,54.80
2018-03-24T07:11:49.064Z,47.83
2018-03-24T07:14:21.477Z,46.80
2018-03-24T07:16:53.968Z,51.67
2018-03-24T07:19:27.328Z,52.93
2018-03-24T07:22:00.297Z,42.33
2018-03-24T07:24:32.887Z,44.20
2018-03-24T07:27:05.330Z,44.10
2018-03-24T07:29:38.848Z,43.67
2018-03-24T07:32:11.215Z,45.00
2018-03-24T07:34:43.648Z,45.33
2018-03-24T07:37:16.095Z,47.00
2018-03-24T07:39:49.559Z,51.13
2018-03-24T07:42:21.968Z,45.50
2018-03-24T07:44:54.448Z,50.67
2018-03-24T07:47:26.950Z,44.50
2018-03-24T07:50:00.105Z,48.27
2018-03-24T07:52:32.609Z,46.07
2018-03-24T07:55:05.766Z,45.07
2018-03-24T07:57:38.220Z,50.17
2018-03-24T08:00:10.701Z,44.27
2018-03-24T08:02:44.163Z,46.73
2018-03-24T08:05:16.790Z,45.83
2018-03-24T08:07:49.323Z,40.73
2018-03-24T08:10:22.278Z,48.33
2018-03-24T08:12:55.436Z,48.33
2018-03-24T08:15:28.101Z,42.33
2018-03-24T08:18:00.510Z,40.30
2018-03-24T08:20:33.635Z,42.67
2018-03-24T08:23:06.181Z,50.13
2018-03-24T08:25:39.648Z,50.53
2018-03-24T08:28:12.251Z,45.13
2018-03-24T08:30:44.700Z,45.73
2018-03-24T08:33:18.085Z,37.67
2018-03-24T08:35:51.375Z,44.50
2018-03-24T08:38:23.917Z,48.80
2018-03-24T08:40:56.573Z,37.87
2018-03-24T08:43:29.188Z,39.23
2018-03-24T08:46:02.389Z,36.00
2018-03-24T08:48:35.036Z,35.47
2018-03-24T08:51:07.601Z,39.37
2018-03-24T08:53:41.269Z,38.03
2018-03-24T08:56:13.633Z,44.57
2018-03-24T08:58:46.075Z,40.00
2018-03-24T09:01:19.533Z,37.43
2018-03-24T09:03:52.005Z,40.10
2018-03-24T09:06:24.404Z,40.10
2018-03-24T09:08:56.973Z,39.07
2018-03-24T09:11:29.545Z,40.00
2018-03-24T09:14:02.334Z,40.67
2018-03-24T09:16:35.495Z,34.67
2018-03-24T09:19:07.993Z,35.67
2018-03-24T09:21:41.356Z,41.13
2018-03-24T09:24:14.543Z,36.03
2018-03-24T09:26:47.254Z,41.70
2018-03-24T09:29:19.615Z,40.83
2018-03-24T09:31:52.063Z,40.80
2018-03-24T09:34:25.198Z,41.90
2018-03-24T09:36:57.719Z,42.37
2018-03-24T09:39:30.081Z,44.73
2018-03-24T09:42:02.831Z,38.47
2018-03-24T09:44:35.336Z,36.10
2018-03-24T09:47:08.289Z,39.60
2018-03-24T09:49:40.996Z,41.53
2018-03-24T09:52:13.414Z,40.50
2018-03-24T09:54:45.795Z,41.87
2018-03-24T09:57:18.214Z,40.47
2018-03-24T09:59:50.855Z,37.50
2018-03-24T10:02:24.060Z,35.53
2018-03-24T10:04:56.563Z,41.27
2018-03-24T10:07:29.281Z,42.63
2018-03-24T10:10:02.059Z,37.73
2018-03-24T10:12:34.664Z,39.93
2018-03-24T10:15:06.971Z,36.87
2018-03-24T10:17:39.656Z,38.00
2018-03-24T10:20:12.164Z,39.40
2018-03-24T10:22:57.144Z,36.83
2018-03-24T10:25:29.891Z,33.67
2018-03-24T10:28:02.301Z,36.13
2018-03-24T10:30:34.877Z,37.00
2018-03-24T10:33:07.633Z,37.43
2018-03-24T10:35:40.130Z,39.70
2018-03-24T10:38:12.864Z,38.53
2018-03-24T10:40:45.449Z,38.27
2018-03-24T10:43:24.036Z,39.80
2018-03-24T10:45:56.739Z,38.27
2018-03-24T10:48:29.211Z,42.77
2018-03-24T10:51:02.939Z,46.80
2018-03-24T10:53:35.408Z,39.83
2018-03-24T10:56:08.260Z,41.63
2018-03-24T10:58:40.551Z,45.73
2018-03-24T11:01:13.045Z,39.67
2018-03-24T11:03:46.434Z,37.43
2018-03-24T11:06:19.008Z,39.57
2018-03-24T11:08:51.899Z,35.63
2018-03-24T11:11:24.533Z,36.77
2018-03-24T11:13:57.045Z,38.30
2018-03-24T11:16:30.313Z,35.37
2018-03-24T11:19:02.711Z,36.43
2018-03-24T11:21:35.107Z,36.07
2018-03-24T11:24:07.786Z,33.73
2018-03-24T11:26:40.244Z,35.73
2018-03-24T11:29:12.856Z,35.27
2018-03-24T11:31:45.371Z,32.00
2018-03-24T11:34:18.219Z,31.43
2018-03-24T11:36:51.451Z,30.47
2018-03-24T11:39:24.738Z,26.93
2018-03-24T11:41:57.144Z,34.73
2018-03-24T11:44:30.034Z,31.77
2018-03-24T11:47:02.826Z,30.90
2018-03-24T11:49:35.335Z,23.33
2018-03-24T11:52:08.644Z,26.40
2018-03-24T11:54:44.014Z,28.27
2018-03-24T11:57:16.428Z,26.50
2018-03-24T11:59:48.773Z,25.60
2018-03-24T12:02:22.050Z,28.47
2018-03-24T12:04:55.166Z,26.50
2018-03-24T12:07:28.349Z,26.13
2018-03-24T12:10:01.080Z,23.50
2018-03-24T12:12:33.689Z,27.13
2018-03-24T12:15:06.808Z,27.97
2018-03-24T12:17:39.311Z,27.23
2018-03-24T12:20:11.724Z,30.50
2018-03-24T12:22:44.301Z,29.43
2018-03-24T12:25:18.595Z,28.57
2018-03-24T12:27:52.044Z,23.03
2018-03-24T12:30:24.489Z,23.87
2018-03-24T12:32:57.674Z,21.80
2018-03-24T12:35:30.853Z,25.87
2018-03-24T12:38:03.400Z,25.63
2018-03-24T12:40:35.853Z,22.17
2018-03-24T12:43:08.575Z,24.10
2018-03-24T12:45:41.101Z,22.50
2018-03-24T12:48:13.466Z,21.90
2018-03-24T12:50:46.084Z,21.50
2018-03-24T12:53:18.779Z,21.17
2018-03-24T12:55:52.211Z,20.20
2018-03-24T12:58:24.834Z,22.97
2018-03-24T13:00:57.454Z,20.33
2018-03-24T13:03:30.295Z,21.93
2018-03-24T13:06:02.883Z,22.43
2018-03-24T13:08:35.486Z,19.10
2018-03-24T13:11:09.023Z,22.97
2018-03-24T13:13:41.715Z,23.13
2018-03-24T13:16:14.492Z,23.13
2018-03-24T13:18:46.907Z,23.87
2018-03-24T13:21:20.970Z,23.40
2018-03-24T13:23:55.001Z,21.57
2018-03-24T13:26:28.311Z,24.37
2018-03-24T13:29:00.849Z,25.73
2018-03-24T13:31:33.505Z,21.40
2018-03-24T13:34:06.086Z,23.80
2018-03-24T13:36:38.648Z,21.60
2018-03-24T13:39:12.468Z,22.23
2018-03-24T13:41:44.950Z,18.60
2018-03-24T13:44:18.091Z,16.73
2018-03-24T13:46:51.383Z,18.97
2018-03-24T13:49:24.121Z,18.17
2018-03-24T13:51:56.535Z,16.90
2018-03-24T13:54:29.114Z,17.30
2018-03-24T13:57:02.774Z,18.93
2018-03-24T13:59:35.980Z,18.83
2018-03-24T14:02:09.914Z,18.67
2018-03-24T14:04:42.286Z,16.87
2018-03-24T14:07:15.788Z,17.63
2018-03-24T14:09:48.408Z,18.37
2018-03-24T14:12:21.050Z,19.73
2018-03-24T14:14:53.659Z,18.80
2018-03-24T14:17:26.264Z,16.73
2018-03-24T14:19:59.640Z,17.47
2018-03-24T14:22:32.470Z,16.57
2018-03-24T14:25:05.025Z,17.00
2018-03-24T14:27:37.843Z,15.73
2018-03-24T14:30:10.376Z,15.67
2018-03-24T14:32:42.809Z,17.30
2018-03-24T14:35:16.178Z,14.37
2018-03-24T14:37:48.905Z,15.83
2018-03-24T14:40:21.733Z,16.23
2018-03-24T14:42:54.210Z,17.57
2018-03-24T14:45:27.005Z,16.87
2018-03-24T14:47:59.596Z,17.17
2018-03-24T14:50:33.480Z,16.10
2018-03-24T14:53:05.837Z,16.17
2018-03-24T14:55:38.498Z,17.60
2018-03-24T14:58:10.936Z,15.83
2018-03-24T15:00:43.496Z,15.10
2018-03-24T15:03:16.043Z,14.80
2018-03-24T15:05:48.565Z,16.40
2018-03-24T15:08:21.019Z,16.93
2018-03-24T15:10:53.501Z,15.80
2018-03-24T15:13:26.261Z,16.57
2018-03-24T15:15:59.804Z,15.07
2018-03-24T15:18:33.130Z,13.93
2018-03-24T15:21:05.632Z,13.57
2018-03-24T15:23:38.163Z,14.97
2018-03-24T15:26:11.371Z,14.50
2018-03-24T15:29:07.967Z,15.67
2018-03-24T15:31:52.910Z,16.13
2018-03-24T15:34:38.029Z,17.53
2018-03-24T15:37:10.643Z,16.93
2018-03-24T15:39:43.211Z,17.23
2018-03-24T15:42:16.490Z,14.40
2018-03-24T15:44:49.032Z,15.40
2018-03-24T15:47:21.465Z,14.87
2018-03-24T15:49:54.323Z,15.18
2018-03-24T15:52:27.426Z,14.82
2018-03-24T15:55:00.739Z,16.85
2018-03-24T15:57:33.857Z,16.02
2018-03-24T16:00:06.404Z,15.50
2018-03-24T16:05:18.179Z,14.27
2018-03-24T16:07:50.668Z,15.40
2018-03-24T16:10:23.323Z,15.40
2018-03-24T16:12:56.516Z,13.50
2018-03-24T16:15:29.155Z,15.27
2018-03-24T16:18:02.487Z,15.18
2018-03-24T16:20:35.059Z,13.88
2018-03-24T16:23:07.649Z,14.15
2018-03-24T16:25:40.168Z,15.63
2018-03-24T16:28:12.717Z,12.57
2018-03-24T16:30:45.386Z,13.43
2018-03-24T16:33:18.202Z,13.48
2018-03-24T16:35:50.786Z,15.02
2018-03-24T16:38:23.405Z,15.82
2018-03-24T16:40:56.609Z,13.02
2018-03-24T16:43:29.167Z,14.85
2018-03-24T16:46:02.188Z,17.10
2018-03-24T16:48:34.809Z,16.30
2018-03-24T16:51:07.631Z,16.57
2018-03-24T16:53:40.244Z,13.90
2018-03-24T16:56:12.844Z,13.23
2018-03-24T16:58:46.484Z,16.47
2018-03-24T17:01:19.727Z,14.80
2018-03-24T17:03:52.636Z,14.37
2018-03-24T17:06:25.392Z,13.53
2018-03-24T17:08:58.735Z,14.17
2018-03-24T17:11:31.390Z,13.27
2018-03-24T17:14:03.997Z,14.80
2018-03-24T17:16:37.175Z,12.83
2018-03-24T17:19:09.574Z,13.90
2018-03-24T17:21:42.462Z,18.67
2018-03-24T17:24:15.066Z,16.00
2018-03-24T17:26:47.649Z,18.93
2018-03-24T17:29:20.350Z,16.03
2018-03-24T17:31:53.969Z,14.30
2018-03-24T17:34:27.284Z,15.07
2018-03-24T17:36:59.764Z,13.27
2018-03-24T17:39:32.455Z,14.53
2018-03-24T17:42:05.120Z,15.33
2018-03-24T17:44:37.611Z,14.37
2018-03-24T17:47:11.127Z,15.47
2018-03-24T17:49:43.595Z,14.63
2018-03-24T17:52:17.206Z,17.97
2018-03-24T17:54:49.767Z,18.37
2018-03-24T17:57:23.126Z,15.33
2018-03-24T17:59:55.773Z,15.17
2018-03-24T18:02:28.135Z,16.03
2018-03-24T18:05:00.770Z,15.30
2018-03-24T18:07:33.461Z,17.53
2018-03-24T18:10:06.746Z,17.57
2018-03-24T18:12:39.398Z,20.60
2018-03-24T18:15:12.197Z,19.23
2018-03-24T18:17:44.694Z,24.20
2018-03-24T18:20:18.552Z,21.23
2018-03-24T18:22:51.661Z,20.00
2018-03-24T18:25:24.187Z,18.43
2018-03-24T18:27:56.798Z,22.73
2018-03-24T18:30:29.448Z,17.13
2018-03-24T18:33:01.907Z,19.13
2018-03-24T18:35:34.543Z,18.97
2018-03-24T18:38:07.805Z,19.80
2018-03-24T18:40:41.012Z,19.23
2018-03-24T18:43:13.650Z,19.23
2018-03-24T18:45:46.344Z,18.23
2018-03-24T18:48:19.866Z,19.73
2018-03-24T18:50:52.497Z,25.00
2018-03-24T18:53:25.581Z,26.20
2018-03-24T18:55:58.926Z,22.70
2018-03-24T18:58:31.549Z,27.17
2018-03-24T19:01:04.234Z,27.73
2018-03-24T19:03:36.674Z,22.33
2018-03-24T19:06:09.802Z,24.27
2018-03-24T19:08:43.931Z,25.07
2018-03-24T19:11:16.581Z,26.90
2018-03-24T19:13:49.208Z,24.90
2018-03-24T19:16:21.700Z,22.93
2018-03-24T19:18:54.946Z,24.13
2018-03-24T19:21:27.453Z,27.47
2018-03-24T19:24:00.752Z,29.10
2018-03-24T19:26:33.120Z,27.03
2018-03-24T19:29:05.589Z,30.27
2018-03-24T19:31:38.406Z,28.80
2018-03-24T19:34:10.890Z,24.27
2018-03-24T19:36:43.595Z,25.07
2018-03-24T19:39:17.008Z,27.93
2018-03-24T19:41:49.744Z,26.63
2018-03-24T19:44:23.261Z,25.50
2018-03-24T19:46:55.870Z,23.40
2018-03-24T19:49:28.456Z,24.90
2018-03-24T19:52:01.693Z,26.10
2018-03-24T19:54:34.326Z,26.97
2018-03-24T19:57:10.600Z,22.53
2018-03-24T19:59:43.439Z,24.13
2018-03-24T20:02:16.607Z,23.53
2018-03-24T20:04:49.700Z,25.23
2018-03-24T20:07:23.034Z,21.80
2018-03-24T20:09:55.789Z,24.30
2018-03-24T20:12:28.401Z,19.27
2018-03-24T20:15:01.166Z,26.53
2018-03-24T20:17:33.740Z,21.13
2018-03-24T20:20:06.937Z,23.13
2018-03-24T20:22:40.894Z,19.90
2018-03-24T20:25:13.351Z,22.50
2018-03-24T20:27:46.059Z,21.97
2018-03-24T20:30:18.947Z,20.87
2018-03-24T20:32:52.156Z,21.13
2018-03-24T20:35:24.746Z,19.77
2018-03-24T20:37:57.437Z,20.47
2018-03-24T20:40:30.642Z,21.67
2018-03-24T20:43:03.254Z,23.37
2018-03-24T20:45:35.989Z,23.77
2018-03-24T20:48:08.521Z,22.17
2018-03-24T20:50:41.013Z,24.73
2018-03-24T20:53:13.603Z,27.07
2018-03-24T20:55:46.317Z,26.30
2018-03-24T20:58:18.803Z,25.43
2018-03-24T21:00:51.571Z,26.40
2018-03-24T21:03:24.739Z,23.07
2018-03-24T21:05:58.055Z,25.00
2018-03-24T21:08:31.380Z,20.90
2018-03-24T21:11:04.071Z,22.50
2018-03-24T21:13:36.606Z,26.57
2018-03-24T21:16:12.523Z,22.60
2018-03-24T21:18:45.040Z,23.93
2018-03-24T21:21:18.478Z,27.07
2018-03-24T21:23:51.750Z,22.93
2018-03-24T21:26:24.361Z,29.73
2018-03-24T21:28:57.807Z,23.23
2018-03-24T21:31:30.396Z,28.87
2018-03-24T21:34:02.947Z,25.17
2018-03-24T21:36:35.652Z,28.07
2018-03-24T21:39:08.331Z,26.63
2018-03-24T21:41:40.970Z,28.20
2018-03-24T21:44:13.725Z,27.57
2018-03-24T21:46:46.176Z,25.10
2018-03-24T21:49:18.687Z,23.53
2018-03-24T21:51:51.347Z,26.37
2018-03-24T21:54:23.892Z,23.70
2018-03-24T21:56:56.451Z,25.47
2018-03-24T21:59:29.753Z,25.43
2018-03-24T22:02:02.241Z,28.60
2018-03-24T22:04:34.842Z,27.07
2018-03-24T22:07:07.342Z,28.53
2018-03-24T22:09:39.929Z,29.73
2018-03-24T22:12:12.495Z,31.40
2018-03-24T22:14:45.585Z,30.87
2018-03-24T22:17:18.862Z,32.43
2018-03-24T22:19:51.257Z,32.30
2018-03-24T22:22:23.758Z,29.10
2018-03-24T22:24:56.121Z,32.00
2018-03-24T22:27:28.565Z,34.53
2018-03-24T22:30:01.121Z,39.57
2018-03-24T22:32:34.381Z,35.23
2018-03-24T22:35:07.552Z,31.97
2018-03-24T22:37:40.712Z,35.20
2018-03-24T22:40:13.116Z,34.43
2018-03-24T22:42:45.880Z,28.43
2018-03-24T22:45:19.221Z,35.33
2018-03-24T22:47:51.619Z,36.60
2018-03-24T22:50:24.158Z,28.57
2018-03-24T22:52:56.711Z,33.00
2018-03-24T22:55:29.476Z,34.27
2018-03-24T22:58:02.100Z,33.00
2018-03-24T23:00:34.777Z,27.60
2018-03-24T23:03:07.431Z,32.03
2018-03-24T23:05:40.008Z,28.17
2018-03-24T23:08:12.698Z,30.83
2018-03-24T23:10:45.235Z,30.17
2018-03-24T23:13:18.750Z,33.50
2018-03-24T23:15:52.505Z,29.57
2018-03-24T23:18:25.688Z,29.77
2018-03-24T23:20:58.070Z,32.03
2018-03-24T23:23:30.552Z,31.33
2018-03-24T23:26:03.925Z,33.37
2018-03-24T23:28:36.624Z,33.60
2018-03-24T23:31:09.079Z,31.80
2018-03-24T23:33:41.569Z,32.03
2018-03-24T23:36:14.040Z,30.83
2018-03-24T23:38:46.681Z,32.97
2018-03-24T23:41:19.461Z,30.70
2018-03-24T23:43:52.045Z,31.63
2018-03-24T23:46:24.647Z,32.37
2018-03-24T23:48:57.441Z,33.17
2018-03-24T23:51:29.892Z,38.13
2018-03-24T23:54:02.746Z,40.70
2018-03-24T23:56:35.487Z,40.80
2018-03-24T23:59:08.096Z,37.87
